createdAt,value
2022-08-30T00:05:20.809Z,20.9
2022-08-30T00:11:17.348Z,20.9
2022-08-30T00:17:16.820Z,20.7
2022-08-30T00:23:16.694Z,20.6
2022-08-30T00:29:17.168Z,20.3
2022-08-30T00:35:20.307Z,20.3
2022-08-30T00:41:17.840Z,20.1
2022-08-30T00:47:18.057Z,20
2022-08-30T00:53:18.850Z,20
2022-08-30T00:59:16.939Z,19.9
2022-08-30T01:05:18.744Z,19.9
2022-08-30T01:11:18.948Z,20
2022-08-30T01:17:16.357Z,20
2022-08-30T01:23:16.989Z,20.1
2022-08-30T01:29:17.082Z,20
2022-08-30T01:35:16.998Z,20
2022-08-30T01:41:17.922Z,19.9
2022-08-30T01:47:17.775Z,19.9
2022-08-30T01:53:16.559Z,19.9
2022-08-30T01:59:16.318Z,19.6
2022-08-30T02:05:18.493Z,19.5
2022-08-30T02:11:18.983Z,19.5
2022-08-30T02:17:16.959Z,19.5
2022-08-30T02:23:18.798Z,19.5
2022-08-30T02:29:17.366Z,19.5
2022-08-30T02:35:21.075Z,19.5
2022-08-30T02:41:18.489Z,19.5
2022-08-30T02:47:19.724Z,19.5
2022-08-30T02:53:18.008Z,19.4
2022-08-30T02:59:18.724Z,19.4
2022-08-30T03:05:20.949Z,19.4
2022-08-30T03:11:18.001Z,19.4
2022-08-30T03:17:16.595Z,19.2
2022-08-30T03:23:21.416Z,19.2
2022-08-30T03:29:16.863Z,19.3
2022-08-30T03:35:24.615Z,19.2
2022-08-30T03:41:16.978Z,19.2
2022-08-30T03:47:17.492Z,19.3
2022-08-30T03:53:17.652Z,19.3
2022-08-30T03:59:16.399Z,19.3
2022-08-30T04:05:22.852Z,19.2
2022-08-30T04:11:16.575Z,19.1
2022-08-30T04:17:16.945Z,19.1
2022-08-30T04:23:17.935Z,19
2022-08-30T04:29:16.574Z,18.9
2022-08-30T04:35:18.577Z,18.9
2022-08-30T04:41:17.293Z,18.7
2022-08-30T04:47:19.506Z,18.6
2022-08-30T04:53:19.530Z,18.5
2022-08-30T04:59:17.758Z,18.5
2022-08-30T05:05:20.434Z,18.4
2022-08-30T05:11:17.507Z,18.4
2022-08-30T05:17:17.037Z,18.4
2022-08-30T05:23:17.042Z,18.4
2022-08-30T05:29:16.387Z,18.4
2022-08-30T05:35:25.450Z,18.5
2022-08-30T05:41:16.750Z,18.6
2022-08-30T05:47:16.994Z,18.8
2022-08-30T05:53:18.202Z,18.8
2022-08-30T05:59:19.250Z,18.9
2022-08-30T06:05:19.448Z,18.9
2022-08-30T06:11:17.292Z,18.8
2022-08-30T06:17:16.547Z,18.8
2022-08-30T06:23:18.704Z,18.9
2022-08-30T06:29:17.253Z,19.1
2022-08-30T06:35:16.907Z,19.1
2022-08-30T06:41:18.723Z,19.2
2022-08-30T06:47:17.450Z,19.3
2022-08-30T06:53:16.626Z,19.4
2022-08-30T06:59:16.768Z,19.6
2022-08-30T07:05:18.905Z,19.9
2022-08-30T07:11:17.420Z,20.1
2022-08-30T07:17:22.342Z,20.1
2022-08-30T07:23:16.681Z,20.2
2022-08-30T07:29:19.256Z,20.4
2022-08-30T07:35:27.302Z,20.6
2022-08-30T07:41:18.512Z,21
2022-08-30T07:47:17.329Z,21.5
2022-08-30T07:53:17.267Z,21.8
2022-08-30T07:59:16.507Z,21.9
2022-08-30T08:05:24.615Z,22
2022-08-30T08:11:17.970Z,22
2022-08-30T08:17:16.785Z,22.2
2022-08-30T08:23:16.840Z,22.3
2022-08-30T08:29:17.966Z,22.6
2022-08-30T08:35:26.661Z,22.6
2022-08-30T08:41:18.254Z,22.8
2022-08-30T08:47:16.342Z,22.9
2022-08-30T08:53:36.089Z,23.1
2022-08-30T08:59:17.925Z,23.1
2022-08-30T09:05:25.007Z,23.4
2022-08-30T09:11:16.514Z,23.5
2022-08-30T09:17:17.828Z,23.6
2022-08-30T09:23:17.503Z,23.7
2022-08-30T09:29:16.817Z,23.9
2022-08-30T09:35:16.900Z,24.3
2022-08-30T09:41:17.582Z,24.3
2022-08-30T09:47:20.919Z,24.2
2022-08-30T09:53:16.193Z,24.6
2022-08-30T09:59:16.147Z,24.9
2022-08-30T10:05:16.402Z,25.1
2022-08-30T10:11:16.158Z,25.3
2022-08-30T10:17:16.128Z,26
2022-08-30T10:23:16.319Z,26.3
2022-08-30T10:29:16.365Z,26.6
2022-08-30T10:35:19.469Z,26.8
2022-08-30T10:41:16.546Z,26.9
2022-08-30T10:47:18.600Z,26.9
2022-08-30T10:53:16.992Z,26.8
2022-08-30T10:59:17.336Z,26.9
2022-08-30T11:05:16.268Z,26.7
2022-08-30T11:11:16.170Z,26.9
2022-08-30T11:17:16.404Z,27.4
2022-08-30T11:23:16.552Z,28
2022-08-30T11:29:16.284Z,28
2022-08-30T11:35:16.216Z,28.8
2022-08-30T11:41:16.273Z,28.8
2022-08-30T11:47:16.256Z,28.8
2022-08-30T11:53:16.335Z,29
2022-08-30T11:59:16.245Z,29
2022-08-30T12:05:16.374Z,29.3
2022-08-30T12:11:16.164Z,29.3
2022-08-30T12:17:16.236Z,29.6
2022-08-30T12:23:16.308Z,30
2022-08-30T12:29:16.288Z,30
2022-08-30T12:35:16.562Z,30
2022-08-30T12:41:17.281Z,30.6
2022-08-30T12:47:16.630Z,30.4
2022-08-30T12:53:16.831Z,30.6
2022-08-30T12:59:16.712Z,30.8
2022-08-30T13:05:16.488Z,31.1
2022-08-30T13:11:16.494Z,30.7
2022-08-30T13:17:16.683Z,30.4
2022-08-30T13:23:16.505Z,30.3
2022-08-30T13:29:17.035Z,30.3
2022-08-30T13:35:19.240Z,30.4
2022-08-30T13:41:16.878Z,31.2
2022-08-30T13:47:33.249Z,31.3
2022-08-30T13:53:52.110Z,31.5
2022-08-30T13:59:16.654Z,31.8
2022-08-30T14:05:46.734Z,32.5
2022-08-30T14:11:18.689Z,32.8
2022-08-30T14:17:17.200Z,32.9
2022-08-30T14:23:16.982Z,32.9
2022-08-30T14:29:16.567Z,32.9
2022-08-30T14:35:20.064Z,32.5
2022-08-30T14:41:16.839Z,32.4
2022-08-30T14:47:18.027Z,33.4
2022-08-30T14:53:16.778Z,33.5
2022-08-30T14:59:16.807Z,33.4
2022-08-30T15:05:19.832Z,34.5
2022-08-30T15:11:16.786Z,35.5
2022-08-30T15:17:18.240Z,35.9
2022-08-30T15:23:16.985Z,36.5
2022-08-30T15:29:16.629Z,37.1
2022-08-30T15:35:17.653Z,37.3
2022-08-30T15:41:16.733Z,38
2022-08-30T15:47:17.200Z,37.7
2022-08-30T15:53:16.894Z,36.7
2022-08-30T15:59:16.680Z,36
2022-08-30T16:05:18.317Z,36
2022-08-30T16:11:18.302Z,35.9
2022-08-30T16:17:16.707Z,34.4
2022-08-30T16:23:17.640Z,34.1
2022-08-30T16:29:16.758Z,33.7
2022-08-30T16:35:19.647Z,34.5
2022-08-30T16:41:21.431Z,33.7
2022-08-30T16:47:17.044Z,31.9
2022-08-30T16:53:17.145Z,31.2
2022-08-30T16:59:16.959Z,30.6
2022-08-30T17:05:19.109Z,30.3
2022-08-30T17:11:18.167Z,29.8
2022-08-30T17:17:22.043Z,29.5
2022-08-30T17:23:16.850Z,28.7
2022-08-30T17:29:17.239Z,28.4
2022-08-30T17:35:19.209Z,28.3
2022-08-30T17:41:16.732Z,27.6
2022-08-30T17:47:16.807Z,27.4
2022-08-30T17:53:16.986Z,27
2022-08-30T17:59:16.638Z,26.7
2022-08-30T18:05:17.674Z,26.6
2022-08-30T18:11:17.037Z,26.3
2022-08-30T18:17:16.672Z,26.2
2022-08-30T18:23:17.324Z,25.9
2022-08-30T18:29:29.130Z,25.9
2022-08-30T18:35:17.399Z,25.6
2022-08-30T18:41:17.384Z,25.4
2022-08-30T18:47:16.770Z,25.3
2022-08-30T18:53:28.538Z,25.3
2022-08-30T18:59:16.711Z,25.1
2022-08-30T19:05:18.481Z,25
2022-08-30T19:11:16.998Z,24.9
2022-08-30T19:17:17.040Z,24.9
2022-08-30T19:23:16.831Z,24.8
2022-08-30T19:29:16.762Z,24.9
2022-08-30T19:35:17.814Z,24.6
2022-08-30T19:41:17.702Z,24.5
2022-08-30T19:47:17.017Z,24.4
2022-08-30T19:53:17.043Z,24.4
2022-08-30T19:59:17.224Z,24.2
2022-08-30T20:05:18.726Z,24.2
2022-08-30T20:11:17.366Z,24.3
2022-08-30T20:17:17.189Z,24.2
2022-08-30T20:23:16.942Z,24.2
2022-08-30T20:29:16.703Z,24.1
2022-08-30T20:35:19.171Z,24
2022-08-30T20:41:17.613Z,23.9
2022-08-30T20:47:17.774Z,23.9
2022-08-30T20:53:16.870Z,23.9
2022-08-30T20:59:16.782Z,23.8
2022-08-30T21:05:20.532Z,23.9
2022-08-30T21:11:17.358Z,23.8
2022-08-30T21:17:17.034Z,23.7
2022-08-30T21:23:16.903Z,23.8
2022-08-30T21:29:16.899Z,23.8
2022-08-30T21:35:18.077Z,23.5
2022-08-30T21:41:17.352Z,23.5
2022-08-30T21:47:19.898Z,23.6
2022-08-30T21:53:17.677Z,23.4
2022-08-30T21:59:16.798Z,23.4
2022-08-30T22:05:18.903Z,23.4
2022-08-30T22:11:16.975Z,23.4
2022-08-30T22:17:16.833Z,23.3
2022-08-30T22:23:19.066Z,23.3
2022-08-30T22:29:18.122Z,23.2
2022-08-30T22:35:18.980Z,23.2
2022-08-30T22:41:17.572Z,23.2
2022-08-30T22:47:16.795Z,23.2
2022-08-30T22:53:17.050Z,23.1
2022-08-30T22:59:16.687Z,23.1
2022-08-30T23:05:20.399Z,23.1
2022-08-30T23:11:17.376Z,23
2022-08-30T23:17:17.841Z,23
2022-08-30T23:23:18.221Z,22.6
2022-08-30T23:29:16.745Z,22.5
2022-08-30T23:35:17.199Z,22.6
2022-08-30T23:41:17.060Z,22.6
2022-08-30T23:47:16.802Z,22.6
2022-08-30T23:53:17.380Z,22.7
2022-08-30T23:59:16.790Z,22.6
